createdAt,value
2019-04-27T00:00:03.627Z,97515.52
2019-04-27T00:02:55.838Z,97514.69
2019-04-27T00:05:32.267Z,97512.11
2019-04-27T00:08:03.758Z,97506.95
2019-04-27T00:10:33.785Z,97509.53
2019-04-27T00:13:05.663Z,97501.36
2019-04-27T00:15:36.717Z,97503.08
2019-04-27T00:18:09.410Z,97503.94
2019-04-27T00:20:38.510Z,97498.83
2019-04-27T00:23:08.555Z,97497.96
2019-04-27T00:25:36.965Z,97497.62
2019-04-27T00:28:05.608Z,97489.47
2019-04-27T00:30:35.610Z,97489.97
2019-04-27T00:33:05.424Z,97486.98
2019-04-27T00:35:38.512Z,97487.84
2019-04-27T00:38:17.744Z,97480.16
2019-04-27T00:40:47.775Z,97482.28
2019-04-27T00:43:16.166Z,97478.00
2019-04-27T00:45:44.567Z,97479.74
2019-04-27T00:48:13.330Z,97478.41
2019-04-27T00:50:41.842Z,97479.70
2019-04-27T00:53:10.235Z,97481.82
2019-04-27T00:55:40.288Z,97478.36
2019-04-27T00:58:19.085Z,97479.66
2019-04-27T01:00:58.043Z,97477.95
2019-04-27T01:03:30.843Z,97479.61
2019-04-27T01:05:59.482Z,97476.94
2019-04-27T01:08:27.887Z,97476.89
2019-04-27T01:10:56.388Z,97479.85
2019-04-27T01:13:24.794Z,97484.55
2019-04-27T01:15:54.155Z,97486.21
2019-04-27T01:18:22.604Z,97482.75
2019-04-27T01:20:50.994Z,97486.21
2019-04-27T01:23:19.415Z,97487.91
2019-04-27T01:26:05.641Z,97483.58
2019-04-27T01:28:35.671Z,97479.24
2019-04-27T01:31:05.746Z,97481.37
2019-04-27T01:33:34.150Z,97479.16
2019-04-27T01:36:02.560Z,97482.56
2019-04-27T01:38:30.965Z,97484.36
2019-04-27T01:41:00.613Z,97483.91
2019-04-27T01:43:30.250Z,97484.73
2019-04-27T01:46:01.013Z,97487.27
2019-04-27T01:48:30.560Z,97488.14
2019-04-27T01:50:59.417Z,97485.05
2019-04-27T01:53:28.912Z,97485.05
2019-04-27T01:55:59.217Z,97484.64
2019-04-27T01:58:29.315Z,97483.86
2019-04-27T02:01:11.381Z,97480.48
2019-04-27T02:03:41.415Z,97480.58
2019-04-27T02:06:09.968Z,97485.33
2019-04-27T02:08:40.236Z,97482.43
2019-04-27T02:11:09.235Z,97479.56
2019-04-27T02:13:38.901Z,97484.72
2019-04-27T02:16:09.000Z,97484.81
2019-04-27T02:18:39.634Z,97483.20
2019-04-27T02:21:09.118Z,97479.38
2019-04-27T02:23:39.279Z,97474.67
2019-04-27T02:26:08.619Z,97470.39
2019-04-27T02:28:47.459Z,97471.30
2019-04-27T02:31:20.413Z,97464.44
2019-04-27T02:33:53.285Z,97469.69
2019-04-27T02:36:21.759Z,97468.81
2019-04-27T02:38:50.173Z,97461.54
2019-04-27T02:41:19.898Z,97468.03
2019-04-27T02:43:50.125Z,97455.17
2019-04-27T02:46:20.005Z,97462.99
2019-04-27T02:48:58.596Z,97467.29
2019-04-27T02:51:36.516Z,97464.75
2019-04-27T02:54:05.073Z,97464.80
2019-04-27T02:56:33.498Z,97469.08
2019-04-27T02:59:01.891Z,97476.81
2019-04-27T03:01:31.936Z,97483.35
2019-04-27T03:04:00.681Z,97473.45
2019-04-27T03:06:29.968Z,97472.53
2019-04-27T03:09:00.425Z,97473.40
2019-04-27T03:11:30.715Z,97478.61
2019-04-27T03:14:29.470Z,97479.03
2019-04-27T03:17:04.780Z,97477.69
2019-04-27T03:19:40.511Z,97480.27
2019-04-27T03:22:19.155Z,97478.98
2019-04-27T03:25:00.644Z,97480.27
2019-04-27T03:27:40.636Z,97475.61
2019-04-27T03:30:12.516Z,97484.23
2019-04-27T03:32:43.195Z,97479.98
2019-04-27T03:35:13.114Z,97476.11
2019-04-27T03:37:42.196Z,97471.00
2019-04-27T03:40:10.810Z,97469.75
2019-04-27T03:42:40.847Z,97467.64
2019-04-27T03:45:10.763Z,97470.72
2019-04-27T03:47:40.765Z,97474.09
2019-04-27T03:50:11.577Z,97462.98
2019-04-27T03:52:41.711Z,97453.54
2019-04-27T03:55:11.814Z,97459.16
2019-04-27T03:57:50.470Z,97456.62
2019-04-27T04:00:30.161Z,97458.81
2019-04-27T04:03:00.578Z,97464.35
2019-04-27T04:05:30.112Z,97466.94
2019-04-27T04:08:00.502Z,97463.06
2019-04-27T04:10:30.613Z,97473.38
2019-04-27T04:13:01.641Z,97470.42
2019-04-27T04:15:31.911Z,97471.71
2019-04-27T04:18:00.333Z,97475.58
2019-04-27T04:20:30.471Z,97474.75
2019-04-27T04:23:00.176Z,97482.49
2019-04-27T04:25:32.668Z,97485.48
2019-04-27T04:28:00.635Z,97480.73
2019-04-27T04:30:30.236Z,97484.11
2019-04-27T04:32:59.909Z,97476.28
2019-04-27T04:35:32.528Z,97480.16
2019-04-27T04:38:00.267Z,97490.02
2019-04-27T04:40:30.832Z,97490.84
2019-04-27T04:43:03.443Z,97485.69
2019-04-27T04:45:35.738Z,97489.97
2019-04-27T04:48:05.788Z,97492.55
2019-04-27T04:50:34.267Z,97490.77
2019-04-27T04:53:02.683Z,97490.77
2019-04-27T04:55:31.085Z,97486.52
2019-04-27T04:57:59.492Z,97489.52
2019-04-27T05:00:29.870Z,97491.26
2019-04-27T05:02:59.515Z,97495.92
2019-04-27T05:05:29.286Z,97494.21
2019-04-27T05:07:58.762Z,97499.37
2019-04-27T05:10:28.801Z,97499.33
2019-04-27T05:12:59.075Z,97504.07
2019-04-27T05:15:29.211Z,97503.58
2019-04-27T05:17:59.207Z,97501.91
2019-04-27T05:20:29.558Z,97482.02
2019-04-27T05:22:59.417Z,97501.53
2019-04-27T05:25:28.700Z,97502.87
2019-04-27T05:27:57.084Z,97503.28
2019-04-27T05:30:25.478Z,97504.56
2019-04-27T05:32:53.891Z,97503.28
2019-04-27T05:35:22.276Z,97503.28
2019-04-27T05:37:50.740Z,97499.41
2019-04-27T05:40:19.133Z,97505.81
2019-04-27T05:42:48.917Z,97506.23
2019-04-27T05:45:43.068Z,97507.94
2019-04-27T05:48:13.165Z,97507.94
2019-04-27T05:50:45.635Z,97510.48
2019-04-27T05:53:11.707Z,97512.56
2019-04-27T05:55:40.103Z,97513.84
2019-04-27T05:58:09.334Z,97512.14
2019-04-27T06:00:39.371Z,97503.16
2019-04-27T06:03:09.062Z,97503.58
2019-04-27T06:05:39.109Z,97507.81
2019-04-27T06:08:08.741Z,97496.66
2019-04-27T06:10:38.685Z,97499.62
2019-04-27T06:13:08.447Z,97498.66
2019-04-27T06:15:38.854Z,97505.77
2019-04-27T06:18:07.273Z,97499.19
2019-04-27T06:20:48.378Z,97503.28
2019-04-27T06:23:05.773Z,97505.23
2019-04-27T06:25:34.193Z,97504.09
2019-04-27T06:28:02.563Z,97501.33
2019-04-27T06:30:30.954Z,97502.89
2019-04-27T06:32:59.526Z,97497.19
2019-04-27T06:35:28.845Z,97496.30
2019-04-27T06:37:58.604Z,97495.80
2019-04-27T06:40:28.931Z,97489.70
2019-04-27T06:42:57.167Z,97496.49
2019-04-27T06:45:25.582Z,97496.72
2019-04-27T06:47:53.985Z,97494.41
2019-04-27T06:50:22.373Z,97492.55
2019-04-27T06:52:50.772Z,97499.20
2019-04-27T06:55:19.155Z,97493.83
2019-04-27T07:03:59.670Z,97502.48
2019-04-27T07:06:28.623Z,97494.53
2019-04-27T07:08:57.033Z,97499.88
2019-04-27T07:11:25.447Z,97496.98
2019-04-27T07:13:53.844Z,97503.19
2019-04-27T07:16:22.234Z,97503.04
2019-04-27T07:18:50.624Z,97503.31
2019-04-27T07:21:24.288Z,97504.50
2019-04-27T07:23:59.412Z,97504.02
2019-04-27T07:26:30.195Z,97509.88
2019-04-27T07:28:59.631Z,97511.22
2019-04-27T07:31:29.496Z,97504.88
2019-04-27T07:33:59.512Z,97512.20
2019-04-27T07:36:29.013Z,97513.44
2019-04-27T07:38:59.662Z,97514.55
2019-04-27T07:41:29.179Z,97508.48
2019-04-27T07:44:02.097Z,97511.94
2019-04-27T07:46:31.830Z,97508.28
2019-04-27T07:49:00.197Z,97505.58
2019-04-27T07:51:33.644Z,97510.17
2019-04-27T07:53:58.994Z,97506.16
2019-04-27T07:56:29.095Z,97508.98
2019-04-27T07:58:59.394Z,97507.63
2019-04-27T08:01:29.408Z,97504.98
2019-04-27T08:03:59.080Z,97505.58
2019-04-27T08:06:28.943Z,97514.60
2019-04-27T08:08:59.178Z,97511.89
2019-04-27T08:11:29.250Z,97509.19
2019-04-27T08:13:58.799Z,97508.23
2019-04-27T08:16:29.099Z,97508.30
2019-04-27T08:18:59.809Z,97508.06
2019-04-27T08:21:28.910Z,97500.76
2019-04-27T08:23:58.609Z,97506.83
2019-04-27T08:26:28.974Z,97505.23
2019-04-27T08:28:59.012Z,97499.18
2019-04-27T08:31:29.300Z,97505.16
2019-04-27T08:33:58.285Z,97501.47
2019-04-27T08:36:28.909Z,97494.88
2019-04-27T08:38:58.861Z,97497.93
2019-04-27T08:41:29.474Z,97495.99
2019-04-27T08:43:58.754Z,97499.17
2019-04-27T08:46:28.631Z,97505.34
2019-04-27T08:48:58.717Z,97504.40
2019-04-27T08:51:29.008Z,97500.77
2019-04-27T08:53:59.000Z,97507.25
2019-04-27T08:56:27.485Z,97505.38
2019-04-27T08:58:55.883Z,97499.53
2019-04-27T09:01:25.245Z,97495.88
2019-04-27T09:03:53.638Z,97491.50
2019-04-27T09:06:22.341Z,97481.47
2019-04-27T09:08:52.383Z,97484.66
2019-04-27T09:11:22.412Z,97483.69
2019-04-27T09:14:01.601Z,97483.45
2019-04-27T09:16:31.653Z,97480.26
2019-04-27T09:19:10.681Z,97476.05
2019-04-27T09:22:10.325Z,97474.33
2019-04-27T09:24:29.227Z,97477.27
2019-04-27T09:26:59.508Z,97476.03
2019-04-27T09:29:29.591Z,97473.84
2019-04-27T09:31:59.607Z,97471.63
2019-04-27T09:34:28.178Z,97473.84
2019-04-27T09:36:56.716Z,97470.61
2019-04-27T09:39:26.470Z,97471.14
2019-04-27T09:41:57.020Z,97465.59
2019-04-27T09:44:26.696Z,97468.88
2019-04-27T09:46:56.079Z,97465.64
2019-04-27T09:49:26.258Z,97472.73
2019-04-27T09:51:55.715Z,97467.62
2019-04-27T09:54:24.154Z,97461.51
2019-04-27T09:56:52.544Z,97458.20
2019-04-27T09:59:20.975Z,97454.44
2019-04-27T10:01:49.369Z,97451.59
2019-04-27T10:04:17.756Z,97450.55
2019-04-27T10:06:48.582Z,97443.70
2019-04-27T10:09:16.268Z,97446.38
2019-04-27T10:11:44.657Z,97447.08
2019-04-27T10:14:13.049Z,97453.13
2019-04-27T10:16:41.442Z,97445.97
2019-04-27T10:19:09.834Z,97448.83
2019-04-27T10:21:38.305Z,97443.86
2019-04-27T10:24:06.770Z,97443.84
2019-04-27T10:26:36.200Z,97438.92
2019-04-27T10:29:06.197Z,97444.85
2019-04-27T10:31:34.763Z,97439.09
2019-04-27T10:34:03.150Z,97440.42
2019-04-27T10:36:40.636Z,97443.90
2019-04-27T10:39:13.458Z,97442.00
2019-04-27T10:41:42.117Z,97441.16
2019-04-27T10:44:10.660Z,97440.92
2019-04-27T10:46:39.123Z,97432.42
2019-04-27T10:49:07.955Z,97427.38
2019-04-27T10:51:36.495Z,97431.11
2019-04-27T10:54:06.829Z,97432.64
2019-04-27T10:56:36.117Z,97429.53
2019-04-27T10:59:06.521Z,97419.81
2019-04-27T11:01:36.055Z,97413.06
2019-04-27T11:04:09.594Z,97415.58
2019-04-27T11:06:45.761Z,97413.20
2019-04-27T11:09:16.201Z,97406.75
2019-04-27T11:11:46.310Z,97406.06
2019-04-27T11:14:15.950Z,97402.52
2019-04-27T11:16:45.945Z,97393.56
2019-04-27T11:19:16.730Z,97383.84
2019-04-27T11:21:44.784Z,97383.09
2019-04-27T11:24:13.186Z,97386.83
2019-04-27T11:26:41.574Z,97385.39
2019-04-27T11:29:09.982Z,97370.67
2019-04-27T11:31:38.529Z,97372.26
2019-04-27T11:34:06.985Z,97369.84
2019-04-27T11:36:37.007Z,97357.22
2019-04-27T11:39:08.467Z,97355.58
2019-04-27T11:41:36.858Z,97348.95
2019-04-27T11:44:05.244Z,97349.25
2019-04-27T11:46:33.681Z,97336.33
2019-04-27T11:49:02.066Z,97332.38
2019-04-27T11:51:30.448Z,97324.91
2019-04-27T11:53:58.832Z,97319.14
2019-04-27T11:56:27.491Z,97319.91
2019-04-27T11:58:56.102Z,97309.13
2019-04-27T12:01:24.553Z,97309.61
2019-04-27T12:03:52.936Z,97303.17
2019-04-27T12:06:21.315Z,97305.60
2019-04-27T12:08:49.709Z,97289.95
2019-04-27T12:11:18.089Z,97306.39
2019-04-27T12:13:46.493Z,97296.89
2019-04-27T12:16:15.645Z,97295.59
2019-04-27T12:18:48.863Z,97298.23
2019-04-27T12:21:15.162Z,97299.87
2019-04-27T12:23:43.556Z,97290.26
2019-04-27T12:26:13.584Z,97287.36
2019-04-27T12:28:52.561Z,97272.05
2019-04-27T12:31:25.840Z,97275.77
2019-04-27T12:33:55.922Z,97271.42
2019-04-27T12:36:25.810Z,97268.91
2019-04-27T12:38:54.356Z,97269.77
2019-04-27T12:41:22.729Z,97266.04
2019-04-27T12:43:51.106Z,97270.06
2019-04-27T12:46:19.496Z,97274.94
2019-04-27T12:48:47.947Z,97278.13
2019-04-27T12:51:16.403Z,97272.81
2019-04-27T12:53:52.847Z,97297.35
2019-04-27T12:56:21.089Z,97296.53
2019-04-27T12:58:54.022Z,97299.48
2019-04-27T13:01:27.065Z,97295.39
2019-04-27T13:03:58.926Z,97297.98
2019-04-27T13:06:25.657Z,97294.99
2019-04-27T13:08:55.703Z,97294.61
2019-04-27T13:11:24.302Z,97290.50
2019-04-27T13:13:52.700Z,97288.09
2019-04-27T13:16:21.085Z,97288.30
2019-04-27T13:18:49.468Z,97283.55
2019-04-27T13:21:20.789Z,97285.02
2019-04-27T13:24:00.832Z,97280.77
2019-04-27T13:26:18.076Z,97282.72
2019-04-27T13:28:46.774Z,97285.33
2019-04-27T13:31:15.692Z,97272.47
2019-04-27T13:33:44.156Z,97277.12
2019-04-27T13:36:12.568Z,97270.88
2019-04-27T13:38:40.956Z,97269.41
2019-04-27T13:41:10.021Z,97263.15
2019-04-27T13:43:39.243Z,97262.98
2019-04-27T13:46:09.711Z,97256.47
2019-04-27T13:48:56.246Z,97242.63
2019-04-27T13:51:41.160Z,97243.01
2019-04-27T13:54:18.743Z,97240.55
2019-04-27T13:56:39.652Z,97231.27
2019-04-27T13:59:08.109Z,97231.84
2019-04-27T14:01:36.571Z,97223.08
2019-04-27T14:04:06.866Z,97229.98
2019-04-27T14:06:35.195Z,97224.77
2019-04-27T14:09:05.091Z,97227.95
2019-04-27T14:11:33.494Z,97224.58
2019-04-27T14:14:01.961Z,97216.75
2019-04-27T14:16:30.363Z,97212.73
2019-04-27T14:18:59.434Z,97215.09
2019-04-27T14:21:29.528Z,97215.28
2019-04-27T14:23:58.616Z,97210.98
2019-04-27T14:26:28.458Z,97210.98
2019-04-27T14:28:58.338Z,97210.88
2019-04-27T14:31:26.826Z,97223.92
2019-04-27T14:33:55.204Z,97218.80
2019-04-27T14:36:23.597Z,97228.88
2019-04-27T14:38:51.987Z,97227.39
2019-04-27T14:41:20.396Z,97219.55
2019-04-27T14:44:05.027Z,97219.19
2019-04-27T14:46:18.859Z,97220.45
2019-04-27T14:48:47.246Z,97216.16
2019-04-27T14:51:15.627Z,97213.67
2019-04-27T14:53:44.014Z,97207.64
2019-04-27T14:56:12.395Z,97198.05
2019-04-27T14:58:40.789Z,97201.13
2019-04-27T15:01:09.167Z,97196.47
2019-04-27T15:03:37.544Z,97203.25
2019-04-27T15:06:05.941Z,97190.94
2019-04-27T15:08:34.330Z,97194.56
2019-04-27T15:11:04.175Z,97187.50
2019-04-27T15:13:32.834Z,97185.27
2019-04-27T15:16:02.604Z,97187.85
2019-04-27T15:18:34.659Z,97183.02
2019-04-27T15:21:03.755Z,97184.98
2019-04-27T15:23:32.308Z,97182.66
2019-04-27T15:26:00.696Z,97183.96
2019-04-27T15:28:32.054Z,97178.94
2019-04-27T15:31:02.113Z,97101.87
2019-04-27T15:33:51.459Z,97180.44
2019-04-27T15:36:23.073Z,97182.50
2019-04-27T15:39:09.669Z,97089.13
2019-04-27T15:41:39.755Z,97183.03
2019-04-27T15:44:09.388Z,97187.70
2019-04-27T15:46:39.072Z,97192.55
2019-04-27T15:49:11.274Z,97189.30
2019-04-27T15:51:38.278Z,97189.20
2019-04-27T15:54:06.786Z,97190.88
2019-04-27T15:56:35.528Z,97200.01
2019-04-27T15:59:05.425Z,97197.77
2019-04-27T16:01:35.708Z,97197.39
2019-04-27T16:04:07.694Z,97120.21
2019-04-27T16:06:34.544Z,97195.67
2019-04-27T16:09:02.927Z,97197.25
2019-04-27T16:11:31.339Z,97198.11
2019-04-27T16:14:03.012Z,97199.23
2019-04-27T16:16:33.471Z,97190.85
2019-04-27T16:19:03.621Z,97191.14
2019-04-27T16:21:31.596Z,97192.53
2019-04-27T16:24:00.048Z,97192.53
2019-04-27T16:26:28.595Z,97197.93
2019-04-27T16:28:58.102Z,97199.03
2019-04-27T16:31:31.465Z,97199.77
2019-04-27T16:33:59.146Z,97195.83
2019-04-27T16:36:26.705Z,97194.88
2019-04-27T16:38:56.734Z,97194.70
2019-04-27T16:41:25.188Z,97195.63
2019-04-27T16:43:53.646Z,97190.05
2019-04-27T16:46:22.115Z,97192.80
2019-04-27T16:48:50.506Z,97191.12
2019-04-27T16:51:18.882Z,97192.80
2019-04-27T16:53:47.579Z,97195.27
2019-04-27T16:56:18.577Z,97201.30
2019-04-27T16:58:51.111Z,97193.31
2019-04-27T17:01:20.329Z,97191.18
2019-04-27T17:03:48.718Z,97190.09
2019-04-27T17:06:19.097Z,97196.42
2019-04-27T17:08:49.465Z,97190.65
2019-04-27T17:11:19.546Z,97188.87
2019-04-27T17:13:51.986Z,97190.65
2019-04-27T17:16:31.222Z,97183.93
2019-04-27T17:19:04.940Z,97189.59
2019-04-27T17:21:28.886Z,97184.84
2019-04-27T17:24:02.807Z,97179.58
2019-04-27T17:26:29.135Z,97184.22
2019-04-27T17:29:11.083Z,97182.05
2019-04-27T17:31:38.165Z,97167.03
2019-04-27T17:34:08.174Z,97187.39
2019-04-27T17:36:38.506Z,97190.28
2019-04-27T17:39:10.643Z,97180.95
2019-04-27T17:41:42.141Z,97181.30
2019-04-27T17:44:12.670Z,97185.19
2019-04-27T17:46:42.743Z,97197.41
2019-04-27T17:49:09.445Z,97202.55
2019-04-27T17:51:42.957Z,97200.28
2019-04-27T17:54:11.363Z,97199.95
2019-04-27T17:56:48.255Z,97204.09
2019-04-27T17:59:11.978Z,97206.86
2019-04-27T18:01:38.865Z,97209.27
2019-04-27T18:04:10.407Z,97216.45
2019-04-27T18:06:39.038Z,97213.66
2019-04-27T18:09:09.842Z,97216.97
2019-04-27T18:11:38.501Z,97216.35
2019-04-27T18:14:11.146Z,97221.55
2019-04-27T18:16:38.047Z,97221.19
2019-04-27T18:19:11.239Z,97234.34
2019-04-27T18:21:39.858Z,97306.48
2019-04-27T18:24:09.879Z,97309.13
2019-04-27T18:26:49.258Z,97327.41
2019-04-27T18:29:12.725Z,97325.58
2019-04-27T18:31:41.111Z,97333.86
2019-04-27T18:34:15.241Z,97343.86
2019-04-27T18:36:43.896Z,97343.80
2019-04-27T18:39:13.450Z,97341.18
2019-04-27T18:41:44.428Z,97353.12
2019-04-27T18:44:11.194Z,97359.65
2019-04-27T18:46:39.818Z,97371.64
2019-04-27T18:49:12.553Z,97377.06
2019-04-27T18:51:42.575Z,97386.67
2019-04-27T18:54:10.969Z,97389.59
2019-04-27T18:56:41.581Z,97398.88
2019-04-27T18:59:09.577Z,97407.12
2019-04-27T19:01:37.960Z,97404.03
2019-04-27T19:04:08.539Z,97411.68
2019-04-27T19:06:36.467Z,97415.45
2019-04-27T19:09:08.314Z,97417.58
2019-04-27T19:11:38.247Z,97425.87
2019-04-27T19:14:08.341Z,97421.36
2019-04-27T19:16:38.388Z,97425.73
2019-04-27T19:19:08.734Z,97422.51
2019-04-27T19:21:39.113Z,97423.44
2019-04-27T19:24:08.862Z,97418.13
2019-04-27T19:26:48.513Z,97433.34
2019-04-27T19:29:18.943Z,97448.73
2019-04-27T19:31:54.657Z,97455.09
2019-04-27T19:34:23.043Z,97450.11
2019-04-27T19:36:59.281Z,97447.48
2019-04-27T19:39:28.574Z,97437.17
2019-04-27T19:42:01.388Z,97467.72
2019-04-27T19:44:28.974Z,97464.22
2019-04-27T19:46:57.510Z,97456.61
2019-04-27T19:49:32.715Z,97462.73
2019-04-27T19:52:01.178Z,97375.45
2019-04-27T19:54:30.241Z,97474.34
2019-04-27T19:57:04.619Z,97479.09
2019-04-27T19:59:46.178Z,97490.42
2019-04-27T20:02:16.205Z,97486.52
2019-04-27T20:04:45.853Z,97489.09
2019-04-27T20:07:14.243Z,97490.09
2019-04-27T20:09:44.265Z,97495.80
2019-04-27T20:12:13.774Z,97497.14
2019-04-27T20:14:57.321Z,97499.97
2019-04-27T20:17:31.111Z,97502.22
2019-04-27T20:19:59.996Z,97502.88
2019-04-27T20:22:28.384Z,97501.28
2019-04-27T20:24:56.764Z,97500.95
2019-04-27T20:27:25.158Z,97503.30
2019-04-27T20:29:53.544Z,97517.56
2019-04-27T20:32:21.993Z,97533.09
2019-04-27T20:34:51.296Z,97533.59
2019-04-27T20:37:20.996Z,97546.13
2019-04-27T20:39:51.251Z,97544.88
2019-04-27T20:42:21.108Z,97546.55
2019-04-27T20:44:51.418Z,97546.52
2019-04-27T20:47:19.942Z,97540.60
2019-04-27T20:49:48.338Z,97536.55
2019-04-27T20:52:18.356Z,97544.34
2019-04-27T20:54:46.736Z,97536.73
2019-04-27T20:57:15.109Z,97535.48
2019-04-27T20:59:43.494Z,97543.70
2019-04-27T21:02:29.590Z,97549.72
2019-04-27T21:05:02.599Z,97543.70
2019-04-27T21:07:38.547Z,97557.38
2019-04-27T21:10:08.058Z,97558.17
2019-04-27T21:12:36.433Z,97548.74
2019-04-27T21:15:05.557Z,97547.45
2019-04-27T21:17:33.934Z,97551.39
2019-04-27T21:20:02.315Z,97545.44
2019-04-27T21:22:31.475Z,97547.18
2019-04-27T21:25:01.516Z,97554.17
2019-04-27T21:27:31.811Z,97560.38
2019-04-27T21:30:02.569Z,97557.03
2019-04-27T21:32:30.429Z,97558.77
2019-04-27T21:34:58.809Z,97543.39
2019-04-27T21:37:27.185Z,97541.28
2019-04-27T21:40:10.489Z,97538.34
2019-04-27T21:42:41.087Z,97537.48
2019-04-27T21:45:11.243Z,97534.52
2019-04-27T21:47:41.357Z,97528.54
2019-04-27T21:50:11.969Z,97512.30
2019-04-27T21:52:42.024Z,97515.39
2019-04-27T21:55:12.118Z,97521.45
2019-04-27T21:57:40.999Z,97533.09
2019-04-27T22:00:16.712Z,97539.34
2019-04-27T22:02:45.105Z,97556.14
2019-04-27T22:05:13.475Z,97581.94
2019-04-27T22:07:41.912Z,97592.30
2019-04-27T22:10:10.686Z,97596.63
2019-04-27T22:12:39.057Z,97592.84
2019-04-27T22:15:07.875Z,97595.02
2019-04-27T22:17:36.258Z,97596.82
2019-04-27T22:20:07.247Z,97602.89
2019-04-27T22:22:37.270Z,97610.23
2019-04-27T22:25:08.151Z,97610.64
2019-04-27T22:27:36.612Z,97605.14
2019-04-27T22:30:06.995Z,97604.75
2019-04-27T22:32:35.460Z,97601.34
2019-04-27T22:35:04.742Z,97601.34
2019-04-27T22:37:33.121Z,97603.97
2019-04-27T22:40:05.793Z,97602.72
2019-04-27T22:42:51.524Z,97608.28
2019-04-27T22:45:21.599Z,97613.90
2019-04-27T22:47:51.244Z,97618.27
2019-04-27T22:50:21.058Z,97614.02
2019-04-27T22:52:49.489Z,97624.36
2019-04-27T22:55:17.875Z,97616.31
2019-04-27T22:57:47.895Z,97618.07
2019-04-27T23:00:18.380Z,97622.48
2019-04-27T23:02:48.392Z,97627.69
2019-04-27T23:05:16.795Z,97636.68
2019-04-27T23:07:45.174Z,97626.90
2019-04-27T23:10:13.792Z,97639.33
2019-04-27T23:12:42.172Z,97642.43
2019-04-27T23:15:12.339Z,97644.21
2019-04-27T23:17:48.183Z,97647.65
2019-04-27T23:20:16.566Z,97649.83
2019-04-27T23:22:44.932Z,97654.63
2019-04-27T23:25:13.312Z,97658.58
2019-04-27T23:27:41.688Z,97656.50
2019-04-27T23:30:11.308Z,97659.94
2019-04-27T23:32:41.473Z,97666.78
2019-04-27T23:35:10.200Z,97659.91
2019-04-27T23:37:38.545Z,97658.63
2019-04-27T23:40:07.066Z,97657.36
2019-04-27T23:42:35.451Z,97659.09
2019-04-27T23:45:05.396Z,97663.81
2019-04-27T23:47:33.781Z,97661.69
2019-04-27T23:50:02.156Z,97656.60
2019-04-27T23:52:37.981Z,97651.04
2019-04-27T23:55:06.426Z,97641.61
2019-04-27T23:57:34.807Z,97640.77
